NBL106 PKMJ-AGGH
Flight info
| Callsign | NBL106 |
|---|---|
| Flight time | 2h 44m |
| Altitude | 34000 |
| Route | PKMJ/07 N0461F340 DCT MARTI A598 HN DCT AGGH/06 |
| Aircraft | B738/M-SDE2E3FGHIRWXY/LB1 |
Departure
| Time | 2026-04-29 02:31 |
|---|---|
| Airport | Marshall Islands International Airport (PKMJ) |
Arrival
| Time | 2026-04-29 05:15 |
|---|---|
| Airport | Honiara International Airport (AGGH) |
| Time | Latitude | Longitude | Altitude | Speed | Heading |
|---|---|---|---|---|---|
| 2026-04-29 02:30 | 7.06251 | 171.26177 | 0 ft | 0 kts | 76° |
| 2026-04-29 02:30 | 7.06280 | 171.26297 | 0 ft | 49 kts | 76° |
| 2026-04-29 02:31 | 7.06420 | 171.26866 | 1 ft | 115 kts | 76° |
| 2026-04-29 02:31 | 7.06657 | 171.27836 | 57 ft | 164 kts | 77° |
| 2026-04-29 02:31 | 7.06763 | 171.28936 | 958 ft | 146 kts | 99° |
| 2026-04-29 02:31 | 7.06357 | 171.29820 | 1788 ft | 145 kts | 128° |
| 2026-04-29 02:32 | 7.05410 | 171.30398 | 1976 ft | 179 kts | 163° |
| 2026-04-29 02:32 | 7.04081 | 171.30281 | 2281 ft | 210 kts | 202° |
| 2026-04-29 02:32 | 7.02979 | 171.29262 | 2796 ft | 223 kts | 230° |
| 2026-04-29 02:32 | 7.02060 | 171.27976 | 3312 ft | 227 kts | 232° |
| 2026-04-29 02:33 | 7.01192 | 171.26662 | 3908 ft | 224 kts | 237° |
| 2026-04-29 02:33 | 7.00292 | 171.25357 | 4216 ft | 235 kts | 219° |
| 2026-04-29 02:33 | 6.98932 | 171.24360 | 4438 ft | 250 kts | 210° |
| 2026-04-29 02:33 | 6.97444 | 171.23381 | 4768 ft | 260 kts | 210° |
| 2026-04-29 02:34 | 6.95918 | 171.22407 | 5178 ft | 268 kts | 208° |
| 2026-04-29 02:34 | 6.94304 | 171.21408 | 5640 ft | 274 kts | 208° |
| 2026-04-29 02:34 | 6.92669 | 171.20417 | 6346 ft | 275 kts | 208° |
| 2026-04-29 02:34 | 6.91013 | 171.19430 | 6980 ft | 278 kts | 208° |
| 2026-04-29 02:35 | 6.89349 | 171.18453 | 7694 ft | 277 kts | 208° |
| 2026-04-29 02:35 | 6.87671 | 171.17477 | 8303 ft | 281 kts | 208° |
| 2026-04-29 02:35 | 6.85969 | 171.16495 | 8946 ft | 284 kts | 207° |
| 2026-04-29 02:35 | 6.84252 | 171.15510 | 9643 ft | 284 kts | 207° |
| 2026-04-29 02:36 | 6.82522 | 171.14521 | 10202 ft | 290 kts | 207° |
| 2026-04-29 02:36 | 6.80706 | 171.13488 | 10376 ft | 310 kts | 208° |
| 2026-04-29 02:36 | 6.78768 | 171.12388 | 10536 ft | 329 kts | 207° |
| 2026-04-29 02:36 | 6.76711 | 171.11221 | 10688 ft | 348 kts | 208° |
| 2026-04-29 02:37 | 6.74550 | 171.09995 | 10801 ft | 366 kts | 208° |
| 2026-04-29 02:37 | 6.72280 | 171.08709 | 10996 ft | 379 kts | 208° |
| 2026-04-29 02:37 | 6.69965 | 171.07398 | 11442 ft | 384 kts | 208° |
| 2026-04-29 02:37 | 6.67639 | 171.06081 | 11997 ft | 385 kts | 208° |
| 2026-04-29 02:38 | 6.65302 | 171.04756 | 12536 ft | 386 kts | 208° |
| 2026-04-29 02:38 | 6.62951 | 171.03425 | 13033 ft | 389 kts | 208° |
| 2026-04-29 02:38 | 6.60596 | 171.02092 | 13600 ft | 389 kts | 208° |
| 2026-04-29 02:38 | 6.58228 | 171.00752 | 14064 ft | 390 kts | 208° |
| 2026-04-29 02:39 | 6.56656 | 170.99863 | 14301 ft | 394 kts | 208° |
| 2026-04-29 02:39 | 6.53463 | 170.98060 | 14752 ft | 400 kts | 208° |
| 2026-04-29 02:39 | 6.51028 | 170.96683 | 15159 ft | 402 kts | 208° |
| 2026-04-29 02:39 | 6.48589 | 170.95304 | 15578 ft | 404 kts | 208° |
| 2026-04-29 02:40 | 6.46129 | 170.93913 | 15963 ft | 407 kts | 208° |
| 2026-04-29 02:40 | 6.44484 | 170.92984 | 16191 ft | 410 kts | 207° |
| 2026-04-29 02:40 | 6.41986 | 170.91574 | 16545 ft | 413 kts | 208° |
| 2026-04-29 02:40 | 6.39472 | 170.90153 | 16908 ft | 416 kts | 208° |
| 2026-04-29 02:41 | 6.36956 | 170.88731 | 17334 ft | 416 kts | 207° |
| 2026-04-29 02:41 | 6.34424 | 170.87300 | 17741 ft | 418 kts | 208° |
| 2026-04-29 02:41 | 6.31880 | 170.85861 | 18017 ft | 423 kts | 208° |
| 2026-04-29 02:41 | 6.29304 | 170.84406 | 18304 ft | 425 kts | 207° |
| 2026-04-29 02:42 | 6.26718 | 170.82944 | 18639 ft | 427 kts | 207° |
| 2026-04-29 02:42 | 6.24123 | 170.81478 | 18944 ft | 428 kts | 208° |
| 2026-04-29 02:42 | 6.21520 | 170.80010 | 19202 ft | 431 kts | 207° |
| 2026-04-29 02:42 | 6.18892 | 170.78528 | 19473 ft | 434 kts | 207° |
| 2026-04-29 02:43 | 6.16251 | 170.77037 | 19751 ft | 436 kts | 207° |
| 2026-04-29 02:43 | 6.13596 | 170.75539 | 20007 ft | 439 kts | 208° |
| 2026-04-29 02:43 | 6.10926 | 170.74033 | 20279 ft | 441 kts | 207° |
| 2026-04-29 02:43 | 6.08245 | 170.72522 | 20560 ft | 442 kts | 207° |
| 2026-04-29 02:44 | 6.05552 | 170.71003 | 20800 ft | 445 kts | 207° |
| 2026-04-29 02:44 | 6.02852 | 170.69479 | 21030 ft | 447 kts | 208° |
| 2026-04-29 02:44 | 6.00167 | 170.67963 | 21294 ft | 449 kts | 208° |
| 2026-04-29 02:44 | 5.97443 | 170.66425 | 21612 ft | 449 kts | 206° |
| 2026-04-29 02:45 | 5.94720 | 170.64889 | 21832 ft | 451 kts | 207° |
| 2026-04-29 02:45 | 5.91969 | 170.63339 | 22025 ft | 454 kts | 207° |
| 2026-04-29 02:45 | 5.89207 | 170.61782 | 22265 ft | 455 kts | 208° |
| 2026-04-29 02:45 | 5.86438 | 170.60220 | 22499 ft | 457 kts | 208° |
| 2026-04-29 02:46 | 5.83666 | 170.58657 | 22721 ft | 459 kts | 207° |
| 2026-04-29 02:46 | 5.80872 | 170.57083 | 22916 ft | 461 kts | 207° |
| 2026-04-29 02:46 | 5.78068 | 170.55505 | 23160 ft | 462 kts | 208° |
| 2026-04-29 02:46 | 5.75257 | 170.53923 | 23339 ft | 464 kts | 208° |
| 2026-04-29 02:47 | 5.72438 | 170.52335 | 23473 ft | 467 kts | 207° |
| 2026-04-29 02:47 | 5.69598 | 170.50734 | 23661 ft | 468 kts | 208° |
| 2026-04-29 02:47 | 5.66757 | 170.49133 | 23876 ft | 468 kts | 207° |
| 2026-04-29 02:47 | 5.63919 | 170.47534 | 24041 ft | 470 kts | 207° |
| 2026-04-29 02:48 | 5.61062 | 170.45924 | 24211 ft | 470 kts | 207° |
| 2026-04-29 02:48 | 5.58208 | 170.44316 | 24434 ft | 470 kts | 208° |
| 2026-04-29 02:48 | 5.55360 | 170.42712 | 24583 ft | 471 kts | 208° |
| 2026-04-29 02:48 | 5.52488 | 170.41095 | 24688 ft | 474 kts | 207° |
| 2026-04-29 02:49 | 5.49605 | 170.39473 | 24845 ft | 475 kts | 208° |
| 2026-04-29 02:49 | 5.46759 | 170.37872 | 25042 ft | 475 kts | 207° |
| 2026-04-29 02:49 | 5.43870 | 170.36247 | 25170 ft | 476 kts | 207° |
| 2026-04-29 02:49 | 5.40978 | 170.34620 | 25294 ft | 478 kts | 207° |
| 2026-04-29 02:50 | 5.38070 | 170.32985 | 25447 ft | 479 kts | 208° |
| 2026-04-29 02:50 | 5.35161 | 170.31348 | 25617 ft | 479 kts | 208° |
| 2026-04-29 02:50 | 5.32253 | 170.29711 | 25734 ft | 481 kts | 208° |
| 2026-04-29 02:50 | 5.29326 | 170.28064 | 25874 ft | 482 kts | 208° |
| 2026-04-29 02:51 | 5.26395 | 170.26415 | 26015 ft | 483 kts | 208° |
| 2026-04-29 02:51 | 5.23466 | 170.24769 | 26113 ft | 485 kts | 207° |
| 2026-04-29 02:51 | 5.20512 | 170.23108 | 26226 ft | 486 kts | 207° |
| 2026-04-29 02:51 | 5.17560 | 170.21449 | 26435 ft | 485 kts | 208° |
| 2026-04-29 02:52 | 5.14605 | 170.19788 | 26527 ft | 488 kts | 208° |
| 2026-04-29 02:52 | 5.11635 | 170.18119 | 26599 ft | 490 kts | 207° |
| 2026-04-29 02:52 | 5.08669 | 170.16452 | 26758 ft | 489 kts | 208° |
| 2026-04-29 02:52 | 5.05693 | 170.14780 | 26885 ft | 491 kts | 208° |
| 2026-04-29 02:53 | 5.02704 | 170.13100 | 26945 ft | 493 kts | 208° |
| 2026-04-29 02:53 | 4.99709 | 170.11416 | 27104 ft | 493 kts | 208° |
| 2026-04-29 02:53 | 4.96718 | 170.09735 | 27312 ft | 492 kts | 208° |
| 2026-04-29 02:53 | 4.93737 | 170.08059 | 27407 ft | 493 kts | 208° |
| 2026-04-29 02:54 | 4.90773 | 170.06395 | 27502 ft | 495 kts | 208° |
| 2026-04-29 02:54 | 4.87775 | 170.04712 | 27750 ft | 492 kts | 208° |
| 2026-04-29 02:54 | 4.84792 | 170.03038 | 27899 ft | 493 kts | 208° |
| 2026-04-29 02:54 | 4.81793 | 170.01354 | 28014 ft | 494 kts | 208° |
| 2026-04-29 02:55 | 4.78794 | 169.99670 | 28222 ft | 493 kts | 208° |
| 2026-04-29 02:55 | 4.75811 | 169.97995 | 28388 ft | 493 kts | 208° |
| 2026-04-29 02:55 | 4.72813 | 169.96312 | 28525 ft | 493 kts | 208° |
| 2026-04-29 02:55 | 4.69819 | 169.94631 | 28761 ft | 492 kts | 208° |
| 2026-04-29 02:56 | 4.66831 | 169.92954 | 28930 ft | 492 kts | 208° |
| 2026-04-29 02:56 | 4.63835 | 169.91273 | 29047 ft | 493 kts | 208° |
| 2026-04-29 02:56 | 4.60856 | 169.89601 | 29343 ft | 490 kts | 208° |
| 2026-04-29 02:56 | 4.57879 | 169.87931 | 29543 ft | 490 kts | 208° |
| 2026-04-29 02:57 | 4.54895 | 169.86257 | 29639 ft | 492 kts | 208° |
| 2026-04-29 02:57 | 4.51913 | 169.84585 | 29812 ft | 492 kts | 208° |
| 2026-04-29 02:57 | 4.48929 | 169.82911 | 30034 ft | 491 kts | 208° |
| 2026-04-29 02:57 | 4.45946 | 169.81238 | 30168 ft | 491 kts | 208° |
| 2026-04-29 02:58 | 4.42971 | 169.79569 | 30331 ft | 491 kts | 208° |
| 2026-04-29 02:58 | 4.39994 | 169.77900 | 30588 ft | 488 kts | 208° |
| 2026-04-29 02:58 | 4.37035 | 169.76240 | 30821 ft | 486 kts | 208° |
| 2026-04-29 02:58 | 4.34086 | 169.74587 | 30965 ft | 487 kts | 208° |
| 2026-04-29 02:59 | 4.31124 | 169.72927 | 31111 ft | 487 kts | 208° |
| 2026-04-29 02:59 | 4.28172 | 169.71272 | 31298 ft | 487 kts | 208° |
| 2026-04-29 02:59 | 4.25216 | 169.69616 | 31499 ft | 486 kts | 208° |
| 2026-04-29 02:59 | 4.22264 | 169.67961 | 31687 ft | 485 kts | 208° |
| 2026-04-29 03:00 | 4.19315 | 169.66308 | 31857 ft | 485 kts | 208° |
| 2026-04-29 03:00 | 4.16373 | 169.64660 | 32013 ft | 486 kts | 208° |
| 2026-04-29 03:00 | 4.13422 | 169.63006 | 32188 ft | 485 kts | 208° |
| 2026-04-29 03:00 | 4.10477 | 169.61356 | 32414 ft | 484 kts | 208° |
| 2026-04-29 03:01 | 4.07545 | 169.59714 | 32589 ft | 484 kts | 208° |
| 2026-04-29 03:01 | 4.04607 | 169.58068 | 32778 ft | 483 kts | 208° |
| 2026-04-29 03:01 | 4.01671 | 169.56424 | 32971 ft | 483 kts | 208° |
| 2026-04-29 03:01 | 3.98749 | 169.54787 | 33154 ft | 482 kts | 208° |
| 2026-04-29 03:02 | 3.95810 | 169.53142 | 33341 ft | 482 kts | 208° |
| 2026-04-29 03:02 | 3.92885 | 169.51504 | 33519 ft | 481 kts | 208° |
| 2026-04-29 03:02 | 3.89960 | 169.49866 | 33710 ft | 481 kts | 208° |
| 2026-04-29 03:02 | 3.87073 | 169.48250 | 33855 ft | 481 kts | 208° |
| 2026-04-29 03:03 | 3.84148 | 169.46612 | 33857 ft | 483 kts | 208° |
| 2026-04-29 03:03 | 3.78284 | 169.43329 | 33872 ft | 481 kts | 208° |
| 2026-04-29 03:04 | 3.72447 | 169.40062 | 33863 ft | 480 kts | 208° |
| 2026-04-29 03:04 | 3.66619 | 169.36800 | 33873 ft | 479 kts | 208° |
| 2026-04-29 03:05 | 3.60809 | 169.33549 | 33871 ft | 478 kts | 208° |
| 2026-04-29 03:05 | 3.55033 | 169.30317 | 33873 ft | 479 kts | 208° |
| 2026-04-29 03:06 | 3.49215 | 169.27060 | 33873 ft | 479 kts | 208° |
| 2026-04-29 03:06 | 3.43439 | 169.23720 | 33872 ft | 480 kts | 210° |
| 2026-04-29 03:07 | 3.37685 | 169.20338 | 33875 ft | 481 kts | 210° |
| 2026-04-29 03:07 | 3.31896 | 169.16941 | 33870 ft | 482 kts | 210° |
| 2026-04-29 03:08 | 3.26090 | 169.13548 | 33871 ft | 483 kts | 210° |
| 2026-04-29 03:08 | 3.20279 | 169.10157 | 33874 ft | 484 kts | 210° |
| 2026-04-29 03:09 | 3.14459 | 169.06762 | 33868 ft | 485 kts | 210° |
| 2026-04-29 03:09 | 3.08623 | 169.03358 | 33871 ft | 485 kts | 210° |
| 2026-04-29 03:10 | 3.02823 | 168.99975 | 33868 ft | 485 kts | 210° |
| 2026-04-29 03:10 | 2.96994 | 168.96575 | 33866 ft | 485 kts | 210° |
| 2026-04-29 03:11 | 2.91168 | 168.93178 | 33870 ft | 485 kts | 210° |
| 2026-04-29 03:11 | 2.85335 | 168.89777 | 33866 ft | 484 kts | 210° |
| 2026-04-29 03:12 | 2.79507 | 168.86379 | 33868 ft | 484 kts | 210° |
| 2026-04-29 03:12 | 2.73694 | 168.82990 | 33869 ft | 484 kts | 210° |
| 2026-04-29 03:13 | 2.67876 | 168.79599 | 33865 ft | 483 kts | 210° |
| 2026-04-29 03:13 | 2.62062 | 168.76210 | 33866 ft | 483 kts | 210° |
| 2026-04-29 03:14 | 2.56260 | 168.72829 | 33865 ft | 483 kts | 210° |
| 2026-04-29 03:14 | 2.50449 | 168.69443 | 33877 ft | 483 kts | 210° |
| 2026-04-29 03:15 | 2.44688 | 168.66087 | 33870 ft | 483 kts | 210° |
| 2026-04-29 03:15 | 2.38850 | 168.62686 | 33868 ft | 482 kts | 210° |
| 2026-04-29 03:16 | 2.33054 | 168.59310 | 33868 ft | 482 kts | 210° |
| 2026-04-29 03:16 | 2.27290 | 168.55952 | 33869 ft | 482 kts | 210° |
| 2026-04-29 03:17 | 2.21498 | 168.52579 | 33864 ft | 482 kts | 210° |
| 2026-04-29 03:17 | 2.15695 | 168.49199 | 33870 ft | 482 kts | 210° |
| 2026-04-29 03:18 | 2.09890 | 168.45819 | 33866 ft | 482 kts | 210° |
| 2026-04-29 03:18 | 2.04090 | 168.42442 | 33870 ft | 483 kts | 210° |
| 2026-04-29 03:19 | 1.98276 | 168.39057 | 33866 ft | 483 kts | 210° |
| 2026-04-29 03:19 | 1.92495 | 168.35691 | 33866 ft | 484 kts | 210° |
| 2026-04-29 03:20 | 1.86680 | 168.32306 | 33875 ft | 484 kts | 210° |
| 2026-04-29 03:20 | 1.80863 | 168.28921 | 33865 ft | 484 kts | 210° |
| 2026-04-29 03:21 | 1.75038 | 168.25531 | 33863 ft | 483 kts | 210° |
| 2026-04-29 03:21 | 1.69223 | 168.22146 | 33866 ft | 483 kts | 210° |
| 2026-04-29 03:22 | 1.63418 | 168.18768 | 33871 ft | 482 kts | 210° |
| 2026-04-29 03:22 | 1.57621 | 168.15395 | 33867 ft | 481 kts | 210° |
| 2026-04-29 03:23 | 1.51871 | 168.12049 | 33867 ft | 480 kts | 210° |
| 2026-04-29 03:23 | 1.46100 | 168.08692 | 33871 ft | 480 kts | 210° |
| 2026-04-29 03:24 | 1.40335 | 168.05338 | 33867 ft | 479 kts | 210° |
| 2026-04-29 03:24 | 1.34576 | 168.01987 | 33869 ft | 479 kts | 210° |
| 2026-04-29 03:25 | 1.28810 | 167.98633 | 33868 ft | 479 kts | 210° |
| 2026-04-29 03:25 | 1.23045 | 167.95279 | 33875 ft | 479 kts | 210° |
| 2026-04-29 03:26 | 1.18257 | 167.92494 | 33869 ft | 479 kts | 210° |
| 2026-04-29 03:26 | 1.12499 | 167.89145 | 33869 ft | 479 kts | 210° |
| 2026-04-29 03:27 | 1.06730 | 167.85790 | 33868 ft | 479 kts | 210° |
| 2026-04-29 03:27 | 1.00966 | 167.82438 | 33869 ft | 480 kts | 210° |
| 2026-04-29 03:28 | 0.95189 | 167.79078 | 33866 ft | 480 kts | 210° |
| 2026-04-29 03:28 | 0.89417 | 167.75721 | 33867 ft | 480 kts | 210° |
| 2026-04-29 03:29 | 0.83640 | 167.72362 | 33869 ft | 481 kts | 210° |
| 2026-04-29 03:29 | 0.77849 | 167.68995 | 33866 ft | 481 kts | 210° |
| 2026-04-29 03:30 | 0.72064 | 167.65631 | 33870 ft | 481 kts | 210° |
| 2026-04-29 03:30 | 0.66306 | 167.62283 | 33868 ft | 482 kts | 209° |
| 2026-04-29 03:31 | 0.57620 | 167.57232 | 33867 ft | 481 kts | 209° |
| 2026-04-29 03:31 | 0.51825 | 167.53863 | 33865 ft | 481 kts | 209° |
| 2026-04-29 03:32 | 0.46043 | 167.50501 | 33866 ft | 481 kts | 209° |
| 2026-04-29 03:32 | 0.40255 | 167.47136 | 33865 ft | 481 kts | 209° |
| 2026-04-29 03:33 | 0.34472 | 167.43774 | 33864 ft | 480 kts | 209° |
| 2026-04-29 03:33 | 0.28703 | 167.40420 | 33863 ft | 480 kts | 209° |
| 2026-04-29 03:34 | 0.22966 | 167.37084 | 33864 ft | 480 kts | 209° |
| 2026-04-29 03:34 | 0.17204 | 167.33734 | 33863 ft | 479 kts | 209° |
| 2026-04-29 03:35 | 0.11434 | 167.30380 | 33863 ft | 479 kts | 209° |
| 2026-04-29 03:35 | 0.05675 | 167.27032 | 33864 ft | 479 kts | 209° |
| 2026-04-29 03:36 | -0.00084 | 167.23684 | 33863 ft | 479 kts | 209° |
| 2026-04-29 03:36 | -0.05854 | 167.20329 | 33864 ft | 479 kts | 209° |
| 2026-04-29 03:37 | -0.11626 | 167.16973 | 33863 ft | 480 kts | 209° |
| 2026-04-29 03:37 | -0.17391 | 167.13621 | 33864 ft | 480 kts | 209° |
| 2026-04-29 03:38 | -0.23131 | 167.10284 | 33863 ft | 480 kts | 209° |
| 2026-04-29 03:38 | -0.28902 | 167.06929 | 33860 ft | 480 kts | 209° |
| 2026-04-29 03:39 | -0.34686 | 167.03566 | 33864 ft | 480 kts | 209° |
| 2026-04-29 03:39 | -0.40462 | 167.00207 | 33863 ft | 481 kts | 209° |
| 2026-04-29 03:40 | -0.46250 | 166.96841 | 33861 ft | 481 kts | 209° |
| 2026-04-29 03:40 | -0.52029 | 166.93480 | 33864 ft | 481 kts | 209° |
| 2026-04-29 03:41 | -0.57696 | 166.89909 | 33863 ft | 482 kts | 214° |
| 2026-04-29 03:41 | -0.63133 | 166.86000 | 33863 ft | 482 kts | 215° |
| 2026-04-29 03:42 | -0.68543 | 166.82056 | 33862 ft | 481 kts | 215° |
| 2026-04-29 03:42 | -0.73972 | 166.78145 | 33863 ft | 481 kts | 214° |
| 2026-04-29 03:43 | -0.79387 | 166.74277 | 33864 ft | 481 kts | 214° |
| 2026-04-29 03:43 | -0.84831 | 166.70397 | 33863 ft | 481 kts | 214° |
| 2026-04-29 03:44 | -0.90282 | 166.66511 | 33863 ft | 481 kts | 214° |
| 2026-04-29 03:44 | -0.95721 | 166.62632 | 33863 ft | 481 kts | 214° |
| 2026-04-29 03:45 | -1.01168 | 166.58745 | 33863 ft | 481 kts | 214° |
| 2026-04-29 03:45 | -1.06606 | 166.54865 | 33861 ft | 480 kts | 214° |
| 2026-04-29 03:46 | -1.12044 | 166.50985 | 33864 ft | 480 kts | 215° |
| 2026-04-29 03:46 | -1.17455 | 166.47124 | 33861 ft | 481 kts | 214° |
| 2026-04-29 03:47 | -1.22929 | 166.43218 | 33863 ft | 481 kts | 214° |
| 2026-04-29 03:47 | -1.28333 | 166.39362 | 33863 ft | 481 kts | 214° |
| 2026-04-29 03:48 | -1.33774 | 166.35479 | 33861 ft | 481 kts | 214° |
| 2026-04-29 03:48 | -1.39226 | 166.31588 | 33860 ft | 481 kts | 214° |
| 2026-04-29 03:49 | -1.44679 | 166.27696 | 33861 ft | 481 kts | 214° |
| 2026-04-29 03:49 | -1.50126 | 166.23808 | 33857 ft | 481 kts | 214° |
| 2026-04-29 03:50 | -1.55575 | 166.19918 | 33865 ft | 482 kts | 214° |
| 2026-04-29 03:50 | -1.61037 | 166.16020 | 33863 ft | 482 kts | 214° |
| 2026-04-29 03:51 | -1.66502 | 166.12118 | 33859 ft | 482 kts | 215° |
| 2026-04-29 03:51 | -1.71960 | 166.08221 | 33864 ft | 483 kts | 215° |
| 2026-04-29 03:52 | -1.77423 | 166.04320 | 33865 ft | 483 kts | 215° |
| 2026-04-29 03:52 | -1.82900 | 166.00410 | 33863 ft | 483 kts | 215° |
| 2026-04-29 03:53 | -1.88344 | 165.96522 | 33859 ft | 484 kts | 215° |
| 2026-04-29 03:53 | -1.93821 | 165.92611 | 33866 ft | 484 kts | 215° |
| 2026-04-29 03:54 | -1.99338 | 165.88670 | 33863 ft | 485 kts | 215° |
| 2026-04-29 03:54 | -2.04796 | 165.84771 | 33864 ft | 485 kts | 215° |
| 2026-04-29 03:55 | -2.10284 | 165.80851 | 33863 ft | 485 kts | 215° |
| 2026-04-29 03:55 | -2.15775 | 165.76928 | 33860 ft | 485 kts | 215° |
| 2026-04-29 03:56 | -2.21276 | 165.72998 | 33865 ft | 485 kts | 215° |
| 2026-04-29 03:56 | -2.26779 | 165.69065 | 33859 ft | 486 kts | 215° |
| 2026-04-29 03:57 | -2.32275 | 165.65138 | 33864 ft | 486 kts | 215° |
| 2026-04-29 03:57 | -2.37784 | 165.61201 | 33864 ft | 486 kts | 215° |
| 2026-04-29 03:58 | -2.43287 | 165.57267 | 33863 ft | 487 kts | 215° |
| 2026-04-29 03:58 | -2.48801 | 165.53325 | 33863 ft | 487 kts | 215° |
| 2026-04-29 03:59 | -2.54318 | 165.49381 | 33863 ft | 487 kts | 215° |
| 2026-04-29 03:59 | -2.59827 | 165.45443 | 33863 ft | 487 kts | 215° |
| 2026-04-29 04:00 | -2.65336 | 165.41503 | 33864 ft | 487 kts | 215° |
| 2026-04-29 04:00 | -2.70816 | 165.37583 | 33863 ft | 487 kts | 215° |
| 2026-04-29 04:01 | -2.76325 | 165.33643 | 33860 ft | 487 kts | 215° |
| 2026-04-29 04:01 | -2.81843 | 165.29696 | 33857 ft | 487 kts | 215° |
| 2026-04-29 04:02 | -2.87350 | 165.25755 | 33858 ft | 487 kts | 215° |
| 2026-04-29 04:02 | -2.92865 | 165.21809 | 33857 ft | 487 kts | 215° |
| 2026-04-29 04:03 | -2.98367 | 165.17871 | 33864 ft | 486 kts | 215° |
| 2026-04-29 04:03 | -3.03800 | 165.13852 | 33853 ft | 486 kts | 218° |
| 2026-04-29 04:04 | -3.09076 | 165.09642 | 33857 ft | 485 kts | 219° |
| 2026-04-29 04:04 | -3.14336 | 165.05412 | 33854 ft | 484 kts | 218° |
| 2026-04-29 04:05 | -3.19602 | 165.01221 | 33858 ft | 484 kts | 218° |
| 2026-04-29 04:05 | -3.24883 | 164.97044 | 33856 ft | 483 kts | 218° |
| 2026-04-29 04:06 | -3.30155 | 164.92881 | 33858 ft | 483 kts | 218° |
| 2026-04-29 04:06 | -3.35432 | 164.88712 | 33858 ft | 483 kts | 218° |
| 2026-04-29 04:07 | -3.40698 | 164.84549 | 33858 ft | 483 kts | 218° |
| 2026-04-29 04:07 | -3.45966 | 164.80384 | 33858 ft | 483 kts | 218° |
| 2026-04-29 04:08 | -3.51236 | 164.76217 | 33858 ft | 483 kts | 218° |
| 2026-04-29 04:08 | -3.56519 | 164.72039 | 33859 ft | 484 kts | 218° |
| 2026-04-29 04:09 | -3.61794 | 164.67866 | 33865 ft | 483 kts | 217° |
| 2026-04-29 04:09 | -3.67069 | 164.63693 | 33856 ft | 483 kts | 218° |
| 2026-04-29 04:10 | -3.72340 | 164.59522 | 33855 ft | 483 kts | 218° |
| 2026-04-29 04:10 | -3.76721 | 164.56055 | 33858 ft | 482 kts | 218° |
| 2026-04-29 04:11 | -3.82838 | 164.51213 | 33857 ft | 482 kts | 218° |
| 2026-04-29 04:11 | -3.88100 | 164.47048 | 33857 ft | 481 kts | 218° |
| 2026-04-29 04:12 | -3.92502 | 164.43563 | 33857 ft | 481 kts | 218° |
| 2026-04-29 04:12 | -3.97720 | 164.39430 | 33857 ft | 481 kts | 218° |
| 2026-04-29 04:13 | -4.02961 | 164.35279 | 33861 ft | 480 kts | 218° |
| 2026-04-29 04:13 | -4.08210 | 164.31122 | 33857 ft | 480 kts | 218° |
| 2026-04-29 04:14 | -4.13449 | 164.26971 | 33858 ft | 480 kts | 218° |
| 2026-04-29 04:14 | -4.18688 | 164.22820 | 33858 ft | 480 kts | 218° |
| 2026-04-29 04:15 | -4.23928 | 164.18667 | 33858 ft | 481 kts | 218° |
| 2026-04-29 04:15 | -4.29178 | 164.14505 | 33858 ft | 481 kts | 218° |
| 2026-04-29 04:16 | -4.34423 | 164.10347 | 33858 ft | 481 kts | 218° |
| 2026-04-29 04:16 | -4.39678 | 164.06180 | 33858 ft | 481 kts | 218° |
| 2026-04-29 04:17 | -4.44926 | 164.02017 | 33857 ft | 481 kts | 218° |
| 2026-04-29 04:17 | -4.50176 | 163.97853 | 33858 ft | 482 kts | 218° |
| 2026-04-29 04:18 | -4.55438 | 163.93678 | 33863 ft | 482 kts | 218° |
| 2026-04-29 04:18 | -4.60693 | 163.89508 | 33863 ft | 482 kts | 218° |
| 2026-04-29 04:19 | -4.65949 | 163.85336 | 33862 ft | 482 kts | 218° |
| 2026-04-29 04:19 | -4.71181 | 163.81183 | 33863 ft | 482 kts | 218° |
| 2026-04-29 04:20 | -4.76449 | 163.76999 | 33862 ft | 482 kts | 218° |
| 2026-04-29 04:20 | -4.81709 | 163.72822 | 33863 ft | 483 kts | 218° |
| 2026-04-29 04:21 | -4.86979 | 163.68636 | 33863 ft | 483 kts | 218° |
| 2026-04-29 04:21 | -4.92250 | 163.64448 | 33865 ft | 483 kts | 218° |
| 2026-04-29 04:22 | -4.97516 | 163.60263 | 33863 ft | 483 kts | 218° |
| 2026-04-29 04:22 | -5.02759 | 163.56096 | 33864 ft | 484 kts | 218° |
| 2026-04-29 04:23 | -5.08031 | 163.51905 | 33863 ft | 484 kts | 218° |
| 2026-04-29 04:23 | -5.13314 | 163.47703 | 33865 ft | 484 kts | 218° |
| 2026-04-29 04:24 | -5.18589 | 163.43507 | 33867 ft | 484 kts | 218° |
| 2026-04-29 04:24 | -5.23866 | 163.39309 | 33865 ft | 484 kts | 218° |
| 2026-04-29 04:25 | -5.29152 | 163.35103 | 33866 ft | 484 kts | 218° |
| 2026-04-29 04:25 | -5.34429 | 163.30903 | 33866 ft | 484 kts | 218° |
| 2026-04-29 04:26 | -5.39712 | 163.26698 | 33869 ft | 484 kts | 218° |
| 2026-04-29 04:26 | -5.44982 | 163.22501 | 33864 ft | 484 kts | 218° |
| 2026-04-29 04:27 | -5.50254 | 163.18303 | 33864 ft | 483 kts | 218° |
| 2026-04-29 04:27 | -5.55509 | 163.14116 | 33865 ft | 482 kts | 218° |
| 2026-04-29 04:28 | -5.60722 | 163.09963 | 33865 ft | 481 kts | 218° |
| 2026-04-29 04:28 | -5.65972 | 163.05779 | 33866 ft | 481 kts | 218° |
| 2026-04-29 04:29 | -5.71208 | 163.01605 | 33868 ft | 481 kts | 218° |
| 2026-04-29 04:29 | -5.76449 | 162.97425 | 33869 ft | 480 kts | 218° |
| 2026-04-29 04:30 | -5.81689 | 162.93246 | 33867 ft | 480 kts | 218° |
| 2026-04-29 04:31 | -5.89541 | 162.86981 | 33873 ft | 481 kts | 218° |
| 2026-04-29 04:31 | -5.94788 | 162.82794 | 33870 ft | 481 kts | 218° |
| 2026-04-29 04:32 | -6.00030 | 162.78609 | 33869 ft | 482 kts | 218° |
| 2026-04-29 04:32 | -6.05287 | 162.74412 | 33869 ft | 482 kts | 218° |
| 2026-04-29 04:33 | -6.10540 | 162.70216 | 33870 ft | 483 kts | 218° |
| 2026-04-29 04:33 | -6.15761 | 162.66045 | 33870 ft | 483 kts | 218° |
| 2026-04-29 04:34 | -6.21029 | 162.61835 | 33867 ft | 483 kts | 218° |
| 2026-04-29 04:34 | -6.26291 | 162.57629 | 33867 ft | 484 kts | 218° |
| 2026-04-29 04:35 | -6.31555 | 162.53420 | 33870 ft | 484 kts | 218° |
| 2026-04-29 04:35 | -6.36829 | 162.49202 | 33867 ft | 484 kts | 218° |
| 2026-04-29 04:36 | -6.42095 | 162.44990 | 33869 ft | 484 kts | 218° |
| 2026-04-29 04:36 | -6.47372 | 162.40767 | 33869 ft | 484 kts | 218° |
| 2026-04-29 04:37 | -6.52636 | 162.36553 | 33872 ft | 484 kts | 218° |
| 2026-04-29 04:37 | -6.57908 | 162.32333 | 33871 ft | 484 kts | 218° |
| 2026-04-29 04:38 | -6.63169 | 162.28118 | 33871 ft | 484 kts | 218° |
| 2026-04-29 04:38 | -6.68438 | 162.23896 | 33871 ft | 484 kts | 218° |
| 2026-04-29 04:39 | -6.73665 | 162.19712 | 33871 ft | 484 kts | 218° |
| 2026-04-29 04:39 | -6.78950 | 162.15513 | 33871 ft | 483 kts | 218° |
| 2026-04-29 04:40 | -6.84230 | 162.11325 | 33870 ft | 483 kts | 218° |
| 2026-04-29 04:40 | -6.89515 | 162.07127 | 33871 ft | 483 kts | 218° |
| 2026-04-29 04:41 | -6.94788 | 162.02933 | 33871 ft | 483 kts | 218° |
| 2026-04-29 04:41 | -7.00060 | 161.98738 | 33871 ft | 483 kts | 218° |
| 2026-04-29 04:42 | -7.05340 | 161.94536 | 33871 ft | 483 kts | 218° |
| 2026-04-29 04:42 | -7.10613 | 161.90338 | 33872 ft | 483 kts | 218° |
| 2026-04-29 04:43 | -7.15882 | 161.86142 | 33872 ft | 483 kts | 218° |
| 2026-04-29 04:43 | -7.21151 | 161.81945 | 33874 ft | 483 kts | 218° |
| 2026-04-29 04:44 | -7.26390 | 161.77770 | 33877 ft | 482 kts | 218° |
| 2026-04-29 04:44 | -7.31649 | 161.73579 | 33874 ft | 482 kts | 218° |
| 2026-04-29 04:45 | -7.36900 | 161.69392 | 33875 ft | 481 kts | 218° |
| 2026-04-29 04:45 | -7.42153 | 161.65202 | 33877 ft | 481 kts | 218° |
| 2026-04-29 04:46 | -7.47399 | 161.61017 | 33872 ft | 480 kts | 218° |
| 2026-04-29 04:46 | -7.52632 | 161.56841 | 33885 ft | 480 kts | 218° |
| 2026-04-29 04:47 | -7.57871 | 161.52658 | 33883 ft | 480 kts | 219° |
| 2026-04-29 04:47 | -7.63100 | 161.48483 | 33876 ft | 480 kts | 219° |
| 2026-04-29 04:48 | -7.68330 | 161.44305 | 33881 ft | 479 kts | 218° |
| 2026-04-29 04:48 | -7.73554 | 161.40131 | 33881 ft | 479 kts | 219° |
| 2026-04-29 04:49 | -7.78777 | 161.35955 | 33877 ft | 479 kts | 219° |
| 2026-04-29 04:49 | -7.84009 | 161.31772 | 33881 ft | 479 kts | 219° |
| 2026-04-29 04:50 | -7.89234 | 161.27592 | 33882 ft | 480 kts | 219° |
| 2026-04-29 04:50 | -7.94470 | 161.23403 | 33880 ft | 480 kts | 219° |
| 2026-04-29 04:51 | -7.99703 | 161.19214 | 33875 ft | 480 kts | 219° |
| 2026-04-29 04:51 | -8.04928 | 161.15029 | 33881 ft | 479 kts | 219° |
| 2026-04-29 04:52 | -8.10147 | 161.10848 | 33879 ft | 479 kts | 219° |
| 2026-04-29 04:52 | -8.15345 | 161.06685 | 33625 ft | 483 kts | 219° |
| 2026-04-29 04:52 | -8.17996 | 161.04565 | 33015 ft | 485 kts | 219° |
| 2026-04-29 04:53 | -8.20638 | 161.02453 | 32368 ft | 484 kts | 219° |
| 2026-04-29 04:53 | -8.23282 | 161.00338 | 31686 ft | 485 kts | 219° |
| 2026-04-29 04:53 | -8.25925 | 160.98224 | 31085 ft | 484 kts | 219° |
| 2026-04-29 04:53 | -8.28547 | 160.96126 | 30587 ft | 480 kts | 219° |
| 2026-04-29 04:54 | -8.31159 | 160.94035 | 30088 ft | 477 kts | 219° |
| 2026-04-29 04:54 | -8.33753 | 160.91957 | 29503 ft | 474 kts | 219° |
| 2026-04-29 04:54 | -8.36328 | 160.89895 | 28992 ft | 469 kts | 219° |
| 2026-04-29 04:54 | -8.38870 | 160.87859 | 28456 ft | 465 kts | 219° |
| 2026-04-29 04:55 | -8.41390 | 160.85840 | 27955 ft | 460 kts | 219° |
| 2026-04-29 04:55 | -8.43890 | 160.83836 | 27455 ft | 456 kts | 219° |
| 2026-04-29 04:55 | -8.46371 | 160.81847 | 26972 ft | 452 kts | 219° |
| 2026-04-29 04:55 | -8.48826 | 160.79879 | 26484 ft | 449 kts | 219° |
| 2026-04-29 04:56 | -8.51263 | 160.77924 | 25999 ft | 446 kts | 218° |
| 2026-04-29 04:56 | -8.52867 | 160.76638 | 25678 ft | 444 kts | 218° |
| 2026-04-29 04:56 | -8.55281 | 160.74702 | 25177 ft | 441 kts | 219° |
| 2026-04-29 04:56 | -8.58457 | 160.72153 | 24534 ft | 438 kts | 218° |
| 2026-04-29 04:57 | -8.60839 | 160.70241 | 24040 ft | 436 kts | 219° |
| 2026-04-29 04:57 | -8.62441 | 160.68955 | 23718 ft | 435 kts | 219° |
| 2026-04-29 04:57 | -8.64795 | 160.67038 | 23173 ft | 433 kts | 221° |
| 2026-04-29 04:57 | -8.66890 | 160.64909 | 22641 ft | 430 kts | 229° |
| 2026-04-29 04:58 | -8.68843 | 160.62637 | 22146 ft | 426 kts | 230° |
| 2026-04-29 04:58 | -8.70762 | 160.60356 | 21653 ft | 423 kts | 230° |
| 2026-04-29 04:58 | -8.72659 | 160.58097 | 21172 ft | 420 kts | 230° |
| 2026-04-29 04:58 | -8.74552 | 160.55856 | 20684 ft | 418 kts | 229° |
| 2026-04-29 04:59 | -8.76444 | 160.53630 | 20209 ft | 416 kts | 229° |
| 2026-04-29 04:59 | -8.78327 | 160.51427 | 19745 ft | 414 kts | 229° |
| 2026-04-29 04:59 | -8.80207 | 160.49234 | 19272 ft | 412 kts | 229° |
| 2026-04-29 04:59 | -8.82081 | 160.47052 | 18798 ft | 410 kts | 229° |
| 2026-04-29 05:00 | -8.83949 | 160.44879 | 18315 ft | 409 kts | 229° |
| 2026-04-29 05:00 | -8.85811 | 160.42713 | 17809 ft | 407 kts | 229° |
| 2026-04-29 05:00 | -8.87665 | 160.40557 | 17327 ft | 405 kts | 229° |
| 2026-04-29 05:00 | -8.89505 | 160.38416 | 16860 ft | 402 kts | 229° |
| 2026-04-29 05:01 | -8.91336 | 160.36285 | 16399 ft | 399 kts | 228° |
| 2026-04-29 05:01 | -8.93148 | 160.34175 | 15949 ft | 397 kts | 229° |
| 2026-04-29 05:01 | -8.94952 | 160.32074 | 15482 ft | 395 kts | 228° |
| 2026-04-29 05:01 | -8.96750 | 160.29981 | 15029 ft | 393 kts | 228° |
| 2026-04-29 05:02 | -8.98539 | 160.27897 | 14566 ft | 391 kts | 228° |
| 2026-04-29 05:02 | -9.00320 | 160.25821 | 14114 ft | 390 kts | 228° |
| 2026-04-29 05:02 | -9.02093 | 160.23755 | 13661 ft | 388 kts | 228° |
| 2026-04-29 05:02 | -9.03861 | 160.21695 | 13162 ft | 387 kts | 228° |
| 2026-04-29 05:03 | -9.05618 | 160.19647 | 12716 ft | 384 kts | 228° |
| 2026-04-29 05:03 | -9.07362 | 160.17613 | 12265 ft | 381 kts | 228° |
| 2026-04-29 05:03 | -9.09094 | 160.15593 | 11832 ft | 379 kts | 228° |
| 2026-04-29 05:03 | -9.10814 | 160.13587 | 11400 ft | 376 kts | 228° |
| 2026-04-29 05:04 | -9.12521 | 160.11597 | 11033 ft | 372 kts | 228° |
| 2026-04-29 05:04 | -9.14176 | 160.09666 | 10832 ft | 362 kts | 228° |
| 2026-04-29 05:04 | -9.15802 | 160.07768 | 10679 ft | 352 kts | 228° |
| 2026-04-29 05:04 | -9.17374 | 160.05932 | 10515 ft | 336 kts | 228° |
| 2026-04-29 05:05 | -9.18878 | 160.04176 | 10380 ft | 324 kts | 227° |
| 2026-04-29 05:05 | -9.20335 | 160.02475 | 10239 ft | 316 kts | 227° |
| 2026-04-29 05:05 | -9.21758 | 160.00813 | 10117 ft | 308 kts | 227° |
| 2026-04-29 05:05 | -9.23146 | 159.99193 | 9953 ft | 302 kts | 227° |
| 2026-04-29 05:06 | -9.24525 | 159.97584 | 9667 ft | 301 kts | 227° |
| 2026-04-29 05:06 | -9.25878 | 159.96004 | 9365 ft | 301 kts | 227° |
| 2026-04-29 05:06 | -9.27247 | 159.94407 | 9062 ft | 299 kts | 227° |
| 2026-04-29 05:06 | -9.28609 | 159.92815 | 8757 ft | 299 kts | 227° |
| 2026-04-29 05:07 | -9.29968 | 159.91228 | 8443 ft | 298 kts | 227° |
| 2026-04-29 05:07 | -9.31323 | 159.89645 | 8149 ft | 297 kts | 227° |
| 2026-04-29 05:07 | -9.32674 | 159.88066 | 7853 ft | 296 kts | 227° |
| 2026-04-29 05:07 | -9.34020 | 159.86492 | 7566 ft | 295 kts | 227° |
| 2026-04-29 05:08 | -9.35359 | 159.84927 | 7275 ft | 291 kts | 227° |
| 2026-04-29 05:08 | -9.36672 | 159.83391 | 7000 ft | 285 kts | 227° |
| 2026-04-29 05:08 | -9.37960 | 159.81885 | 6722 ft | 280 kts | 227° |
| 2026-04-29 05:08 | -9.39223 | 159.80410 | 6475 ft | 274 kts | 226° |
| 2026-04-29 05:09 | -9.40698 | 159.79267 | 6188 ft | 264 kts | 198° |
| 2026-04-29 05:09 | -9.42458 | 159.78999 | 5919 ft | 251 kts | 174° |
| 2026-04-29 05:09 | -9.44129 | 159.79368 | 5701 ft | 243 kts | 157° |
| 2026-04-29 05:09 | -9.45679 | 159.79996 | 5458 ft | 245 kts | 155° |
| 2026-04-29 05:10 | -9.47273 | 159.80669 | 5310 ft | 252 kts | 155° |
| 2026-04-29 05:10 | -9.48912 | 159.81369 | 5197 ft | 258 kts | 152° |
| 2026-04-29 05:10 | -9.50213 | 159.82541 | 5114 ft | 246 kts | 117° |
| 2026-04-29 05:10 | -9.50577 | 159.84137 | 4889 ft | 226 kts | 88° |
| 2026-04-29 05:11 | -9.50389 | 159.85656 | 4591 ft | 212 kts | 79° |
| 2026-04-29 05:11 | -9.50037 | 159.87057 | 4288 ft | 198 kts | 76° |
| 2026-04-29 05:11 | -9.49628 | 159.88343 | 3973 ft | 186 kts | 72° |
| 2026-04-29 05:11 | -9.49191 | 159.89532 | 3693 ft | 173 kts | 71° |
| 2026-04-29 05:12 | -9.48760 | 159.90633 | 3477 ft | 167 kts | 71° |
| 2026-04-29 05:12 | -9.48325 | 159.91730 | 3186 ft | 167 kts | 71° |
| 2026-04-29 05:12 | -9.47894 | 159.92811 | 2933 ft | 163 kts | 70° |
| 2026-04-29 05:12 | -9.47467 | 159.93876 | 2680 ft | 163 kts | 70° |
| 2026-04-29 05:13 | -9.47051 | 159.94908 | 2408 ft | 157 kts | 70° |
| 2026-04-29 05:13 | -9.46649 | 159.95911 | 2191 ft | 152 kts | 70° |
| 2026-04-29 05:13 | -9.46248 | 159.96916 | 1962 ft | 155 kts | 69° |
| 2026-04-29 05:13 | -9.45833 | 159.97945 | 1707 ft | 158 kts | 68° |
| 2026-04-29 05:14 | -9.45406 | 159.99012 | 1399 ft | 171 kts | 69° |
| 2026-04-29 05:14 | -9.44936 | 160.00139 | 1172 ft | 180 kts | 66° |
| 2026-04-29 05:14 | -9.44416 | 160.01343 | 799 ft | 182 kts | 68° |
| 2026-04-29 05:14 | -9.43972 | 160.02480 | 508 ft | 166 kts | 71° |
| 2026-04-29 05:15 | -9.43580 | 160.03516 | 248 ft | 154 kts | 71° |
| 2026-04-29 05:15 | -9.43205 | 160.04467 | 66 ft | 135 kts | 72° |
| 2026-04-29 05:15 | -9.42900 | 160.05256 | 32 ft | 91 kts | 69° |
| 2026-04-29 05:15 | -9.42748 | 160.05637 | 28 ft | 23 kts | 71° |
| 2026-04-29 05:16 | -9.42714 | 160.05701 | 27 ft | 2 kts | 325° |
| 2026-04-29 05:16 | -9.42736 | 160.05637 | 28 ft | 21 kts | 243° |
| 2026-04-29 05:16 | -9.42838 | 160.05448 | 30 ft | 26 kts | 250° |
| 2026-04-29 05:16 | -9.42917 | 160.05216 | 31 ft | 29 kts | 251° |
| 2026-04-29 05:17 | -9.42977 | 160.05046 | 30 ft | 12 kts | 248° |
| 2026-04-29 05:17 | -9.42986 | 160.05001 | 31 ft | 10 kts | 279° |
| 2026-04-29 05:17 | -9.42904 | 160.04947 | 32 ft | 10 kts | 339° |
| 2026-04-29 05:17 | -9.42880 | 160.04940 | 33 ft | 0 kts | 344° |